Latest Weather Observations for Sellicks Hill

IDS60901

Issued at 2:11 am CST Tuesday 23 April 2024 (issued every 10 minutes, with the page automatically refreshed every 10 minutes)

About weather observations | Map of Adelaide area stations | Latest observations for Adelaide area | Other Formats
Station Details ID: 023886 Name: MOUNT TERRIBLE RADAR Lat: -35.33 Lon: 138.50 Height: 385.7 m
Data from the previous 72 hours. | See also: Recent months at Sellicks Hill
Date/Time
CST
Temp
°C
App
Temp
°C
Dew
Point
°C
Rel
Hum
%
Delta-T
°C
Wind Press
QNH
hPa
Press
MSL
hPa
Rain since
9am
mm
Dir  Spd
km/h
Gust
km/h
Spd
kts
Gust
kts
23/02:00am - - - - - NNW 9 13 5 7 - - -
23/01:30am - - - - - N 9 15 5 8 - - -
23/01:00am - - - - - N 7 11 4 6 - - -
23/12:30am - - - - - N 7 11 4 6 - - -
23/12:00am - - - - - N 7 9 4 5 - - -
 
Date/Time
CST
Temp
°C
App
Temp
°C
Dew
Point
°C
Rel
Hum
%
Delta-T
°C
Wind Press
QNH
hPa
Press
MSL
hPa
Rain since
9am
mm
Dir  Spd
km/h
Gust
km/h
Spd
kts
Gust
kts
22/11:30pm - - - - - N 7 13 4 7 - - -
22/11:00pm - - - - - N 9 13 5 7 - - -
22/10:30pm - - - - - N 7 13 4 7 - - -
22/10:00pm - - - - - NNE 7 13 4 7 - - -
22/09:30pm - - - - - NE 4 7 2 4 - - -
22/09:00pm - - - - - NNE 4 9 2 5 - - -
22/08:30pm - - - - - CALM 0 2 0 1 - - -
22/08:00pm - - - - - CALM 0 2 0 1 - - -
22/07:30pm - - - - - ENE 2 4 1 2 - - -
22/07:00pm - - - - - ENE 4 6 2 3 - - -
22/06:30pm - - - - - SW 4 6 2 3 - - -
22/06:00pm - - - - - SW 2 4 1 2 - - -
22/05:30pm - - - - - WSW 2 6 1 3 - - -
22/05:00pm - - - - - NW 4 6 2 3 - - -
22/04:30pm - - - - - NNW 4 6 2 3 - - -
22/04:00pm - - - - - WNW 4 7 2 4 - - -
22/03:30pm - - - - - NW 4 11 2 6 - - -
22/03:00pm - - - - - NW 6 11 3 6 - - -
22/02:30pm - - - - - NNW 6 11 3 6 - - -
22/02:00pm - - - - - NNW 7 15 4 8 - - -
22/01:30pm - - - - - NNW 9 13 5 7 - - -
22/01:00pm - - - - - NNW 11 19 6 10 - - -
22/12:30pm - - - - - NNW 9 22 5 12 - - -
22/12:00pm - - - - - NNW 13 20 7 11 - - -
22/11:30am - - - - - NNW 13 24 7 13 - - -
22/11:00am - - - - - NNW 13 19 7 10 - - -
22/10:30am - - - - - NNW 13 20 7 11 - - -
22/10:00am - - - - - NNW 11 17 6 9 - - -
22/09:30am - - - - - NNW 9 15 5 8 - - -
22/09:00am - - - - - N 11 20 6 11 - - -
22/08:30am - - - - - N 9 15 5 8 - - -
22/08:00am - - - - - NNW 7 11 4 6 - - -
22/07:30am - - - - - NNW 7 11 4 6 - - -
22/07:00am - - - - - NNW 7 13 4 7 - - -
22/06:30am - - - - - NNW 7 13 4 7 - - -
22/06:00am - - - - - NNW 6 7 3 4 - - -
22/05:30am - - - - - NNW 6 7 3 4 - - -
22/05:00am - - - - - N 6 7 3 4 - - -
22/04:30am - - - - - NNW 4 6 2 3 - - -
22/04:00am - - - - - N 6 7 3 4 - - -
22/03:30am - - - - - NNW 4 6 2 3 - - -
22/03:00am - - - - - N 4 6 2 3 - - -
22/02:30am - - - - - N 4 7 2 4 - - -
22/02:00am - - - - - NE 2 6 1 3 - - -
22/01:30am - - - - - E 4 7 2 4 - - -
22/01:00am - - - - - ESE 4 6 2 3 - - -
22/12:30am - - - - - SSE 6 9 3 5 - - -
22/12:00am - - - - - SE 7 9 4 5 - - -
 
Date/Time
CST
Temp
°C
App
Temp
°C
Dew
Point
°C
Rel
Hum
%
Delta-T
°C
Wind Press
QNH
hPa
Press
MSL
hPa
Rain since
9am
mm
Dir  Spd
km/h
Gust
km/h
Spd
kts
Gust
kts
21/11:30pm - - - - - ESE 9 13 5 7 - - -
21/11:00pm - - - - - ESE 13 19 7 10 - - -
21/10:30pm - - - - - ESE 13 20 7 11 - - -
21/10:00pm - - - - - ESE 15 22 8 12 - - -
21/09:30pm - - - - - ESE 15 20 8 11 - - -
21/09:00pm - - - - - ESE 13 19 7 10 - - -
21/08:30pm - - - - - SE 15 20 8 11 - - -
21/08:00pm - - - - - SE 13 17 7 9 - - -
21/07:30pm - - - - - SE 17 20 9 11 - - -
21/07:00pm - - - - - SE 17 19 9 10 - - -
21/06:30pm - - - - - SE 17 19 9 10 - - -
21/06:00pm - - - - - SE 22 24 12 13 - - -
21/05:30pm - - - - - SE 17 22 9 12 - - -
21/05:00pm - - - - - ESE 11 17 6 9 - - -
21/04:30pm - - - - - ESE 9 15 5 8 - - -
21/04:00pm - - - - - SSE 9 17 5 9 - - -
21/03:30pm - - - - - WSW 2 6 1 3 - - -
21/03:00pm - - - - - W 4 9 2 5 - - -
21/02:30pm - - - - - WSW 4 9 2 5 - - -
21/02:00pm - - - - - W 6 9 3 5 - - -
21/01:30pm - - - - - W 6 9 3 5 - - -
21/01:00pm - - - - - W 4 9 2 5 - - -
21/12:30pm - - - - - W 4 7 2 4 - - -
21/12:00pm - - - - - W 4 7 2 4 - - -
21/11:30am - - - - - CALM 0 4 0 2 - - -
21/11:00am - - - - - WNW 2 6 1 3 - - -
21/10:30am - - - - - ESE 7 11 4 6 - - -
21/10:00am - - - - - ESE 9 15 5 8 - - -
21/09:30am - - - - - SE 15 20 8 11 - - -
21/09:00am - - - - - SE 13 19 7 10 - - -
21/08:30am - - - - - ESE 15 20 8 11 - - -
21/08:00am - - - - - SE 19 26 10 14 - - -
21/07:30am - - - - - ESE 17 24 9 13 - - -
21/07:00am - - - - - ESE 19 24 10 13 - - -
21/06:30am - - - - - SE 19 24 10 13 - - -
21/06:00am - - - - - ESE 19 24 10 13 - - -
21/05:30am - - - - - SE 20 28 11 15 - - -
21/05:00am - - - - - SE 20 26 11 14 - - -
21/04:30am - - - - - SE 20 26 11 14 - - -
21/04:00am - - - - - SE 20 26 11 14 - - -
21/03:30am - - - - - SE 20 24 11 13 - - -
21/03:00am - - - - - SE 19 26 10 14 - - -
21/02:30am - - - - - SE 20 26 11 14 - - -
21/02:00am - - - - - SE 19 22 10 12 - - -
21/01:30am - - - - - SE 20 26 11 14 - - -
21/01:00am - - - - - SE 22 26 12 14 - - -
21/12:30am - - - - - SE 20 24 11 13 - - -
21/12:00am - - - - - SE 22 26 12 14 - - -
 
Date/Time
CST
Temp
°C
App
Temp
°C
Dew
Point
°C
Rel
Hum
%
Delta-T
°C
Wind Press
QNH
hPa
Press
MSL
hPa
Rain since
9am
mm
Dir  Spd
km/h
Gust
km/h
Spd
kts
Gust
kts
20/11:30pm - - - - - SE 24 28 13 15 - - -
20/11:00pm - - - - - SE 22 26 12 14 - - -
20/10:30pm - - - - - SSE 24 26 13 14 - - -
20/10:00pm - - - - - SE 22 26 12 14 - - -
20/09:30pm - - - - - SE 26 30 14 16 - - -
20/09:00pm - - - - - SSE 28 32 15 17 - - -
20/08:30pm - - - - - SSE 26 32 14 17 - - -
20/08:00pm - - - - - SSE 30 33 16 18 - - -
20/07:30pm - - - - - SSE 26 30 14 16 - - -
20/07:00pm - - - - - SSE 32 35 17 19 - - -
20/06:30pm - - - - - SSE 26 30 14 16 - - -
20/06:00pm - - - - - SSE 26 32 14 17 - - -
20/05:30pm - - - - - SSE 33 41 18 22 - - -
20/05:00pm - - - - - SSE 33 39 18 21 - - -
20/04:30pm - - - - - SSE 35 43 19 23 - - -
20/04:00pm - - - - - SSE 32 37 17 20 - - -
20/03:30pm - - - - - SSE 30 35 16 19 - - -
20/03:00pm - - - - - SSE 26 35 14 19 - - -
20/02:30pm - - - - - SSE 22 32 12 17 - - -
20/02:00pm - - - - - SSE 20 28 11 15 - - -
20/01:30pm - - - - - SSE 20 30 11 16 - - -
20/01:00pm - - - - - SE 19 30 10 16 - - -
20/12:30pm - - - - - SE 17 26 9 14 - - -
20/12:00pm - - - - - SSE 20 26 11 14 - - -
20/11:30am - - - - - SE 19 26 10 14 - - -
20/11:00am - - - - - SE 17 33 9 18 - - -
20/10:30am - - - - - SE 20 28 11 15 - - -
20/10:00am - - - - - ESE 17 28 9 15 - - -
20/09:30am - - - - - SE 22 28 12 15 - - -
20/09:00am - - - - - SE 20 26 11 14 - - -
20/08:30am - - - - - SE 17 22 9 12 - - -
20/08:00am - - - - - SE 20 26 11 14 - - -
20/07:30am - - - - - SE 17 20 9 11 - - -
20/07:00am - - - - - SE 19 24 10 13 - - -
20/06:30am - - - - - SE 17 20 9 11 - - -
20/06:00am - - - - - SSE 15 19 8 10 - - -
20/05:30am - - - - - SSE 15 19 8 10 - - -
20/05:00am - - - - - SE 15 17 8 9 - - -
20/04:30am - - - - - SSE 19 20 10 11 - - -
20/04:00am - - - - - SSE 17 19 9 10 - - -
20/03:30am - - - - - SSE 11 15 6 8 - - -
20/03:00am - - - - - SSE 19 22 10 12 - - -
20/02:30am - - - - - SSE 20 24 11 13 - - -

Latest Capital City Observations: Canberra | Sydney | Melbourne | Brisbane | Adelaide | Perth | Hobart | Darwin

Other formats

Comma delimited format used in spreadsheet applications
http://www.bom.gov.au/fwo/IDS60901/IDS60901.95679.axf

JavaScript Object Notation format (JSON) in row-major order
http://www.bom.gov.au/fwo/IDS60901/IDS60901.95679.json

Data quality

Most of these data are generated automatically and are frequently updated. Quality checks on data are not normally performed. It is possible for incorrect values to appear. Refer to information at About Latest Weather Observations and please check the disclaimer before using these data.